Time;durP1;ratioP1;P1;durP2;ratioP2;P2;SDS_P1;SDS_P2;PMS_P1;PMS_P2;Temp;Humidity;BMP_temperature;BMP_pressure;BME280_temperature;BME280_humidity;BME280_pressure;Samples;Min_cycle;Max_cycle;Signal;HPM_P1;HPM_P2
2023/04/19 00:00:45;;;;;;;;;;;;;;;-140.72;100.00;52922.53;5025789;28;19918;-70
2023/04/19 00:03:23;;;;;;;;;;;;;;;-140.72;100.00;52886.00;5033161;28;19924;-70
2023/04/19 00:05:48;;;;;;;;;;;;;;;-140.72;100.00;52910.34;5021437;28;19973;-71
2023/04/19 00:08:20;;;;;;;;;;;;;;;-140.72;100.00;52886.00;5026041;28;19925;-70
2023/04/19 00:10:45;;;;;;;;;;;;;;;-140.72;100.00;52892.09;5028871;28;19928;-71
2023/04/19 00:13:11;;;;;;;;;;;;;;;-140.72;100.00;52914.41;5030625;28;20294;-70
2023/04/19 00:15:37;;;;;;;;;;;;;;;-140.72;100.00;52908.31;5027458;28;19917;-70
2023/04/19 00:18:02;;;;;;;;;;;;;;;-140.72;100.00;52894.13;5030296;28;20058;-71
2023/04/19 00:20:27;;;;;;;;;;;;;;;-140.72;100.00;52894.13;5032109;28;19924;-70
2023/04/19 00:22:53;;;;;;;;;;;;;;;-140.72;100.00;52881.94;5030175;28;19925;-70
2023/04/19 00:25:18;;;;;;;;;;;;;;;-140.72;100.00;52916.44;5024880;28;19981;-71
2023/04/19 00:27:43;;;;;;;;;;;;;;;-140.72;100.00;52904.25;5028163;28;20387;-71
2023/04/19 00:30:09;;;;;;;;;;;;;;;-140.72;100.00;52908.31;5030047;28;19917;-70
2023/04/19 00:32:34;;;;;;;;;;;;;;;-140.72;100.00;52886.00;5023712;28;19925;-70
2023/04/19 00:34:59;;;;;;;;;;;;;;;-140.72;100.00;52910.34;5032472;28;19917;-70
2023/04/19 00:37:24;;;;;;;;;;;;;;;-140.72;100.00;52890.06;5024202;28;19918;-71
2023/04/19 00:39:50;;;;;;;;;;;;;;;-140.72;100.00;52922.53;5026300;28;19921;-70
2023/04/19 00:42:15;;;;;;;;;;;;;;;-140.72;100.00;52881.94;5031064;28;20005;-70
2023/04/19 00:44:41;;;;;;;;;;;;;;;-140.72;100.00;52912.38;5029312;28;19953;-69
2023/04/19 00:47:06;;;;;;;;;;;;;;;-140.72;100.00;52859.63;5028664;28;20008;-70
2023/04/19 00:49:32;;;;;;;;;;;;;;;-140.72;100.00;52863.66;5029516;28;20406;-70
2023/04/19 00:51:57;;;;;;;;;;;;;;;-140.72;100.00;52865.69;5032557;28;19996;-69
2023/04/19 00:54:22;;;;;;;;;;;;;;;-140.72;100.00;52920.50;5031306;28;19973;-69
2023/04/19 00:56:48;;;;;;;;;;;;;;;-140.72;100.00;52930.66;5032864;28;20279;-70
2023/04/19 00:59:14;;;;;;;;;;;;;;;-140.72;100.00;52871.78;5027604;28;20391;-70
2023/04/19 01:01:39;;;;;;;;;;;;;;;-140.72;100.00;52906.28;5036919;27;19933;-70
2023/04/19 01:04:05;;;;;;;;;;;;;;;-140.72;100.00;52869.75;5030777;28;19921;-70
2023/04/19 01:06:30;;;;;;;;;;;;;;;-140.72;100.00;52900.19;5041514;27;20398;-70
2023/04/19 01:08:55;;;;;;;;;;;;;;;-140.72;100.00;52865.69;5030836;28;19964;-70
2023/04/19 01:11:24;;;;;;;;;;;;;;;-140.72;100.00;52894.13;5022660;28;19925;-70
2023/04/19 01:13:49;;;;;;;;;;;;;;;-140.72;100.00;52902.22;5025891;28;19913;-70
2023/04/19 01:16:14;;;;;;;;;;;;;;;-140.72;100.00;52831.19;5031217;28;20356;-70
2023/04/19 01:18:40;;;;;;;;;;;;;;;-140.72;100.00;52861.66;5036762;28;19921;-70
2023/04/19 01:21:05;;;;;;;;;;;;;;;-140.72;100.00;52918.47;5033064;28;20337;-70
2023/04/19 01:23:46;;;;;;;;;;;;;;;-140.72;100.00;52867.72;5032308;28;19986;-70
2023/04/19 01:26:12;;;;;;;;;;;;;;;-140.72;100.00;52855.56;5030511;28;19974;-69
2023/04/19 01:28:37;;;;;;;;;;;;;;;-140.72;100.00;52869.75;5039074;28;20344;-69
2023/04/19 01:31:02;;;;;;;;;;;;;;;-140.72;100.00;52886.00;5026857;28;19922;-69
2023/04/19 01:33:27;;;;;;;;;;;;;;;-140.72;100.00;52849.47;5036421;28;19955;-70
2023/04/19 01:35:53;;;;;;;;;;;;;;;-140.72;100.00;52869.75;5033704;28;20272;-70
2023/04/19 01:38:18;;;;;;;;;;;;;;;-140.72;100.00;52875.84;5041915;28;19928;-70
2023/04/19 01:40:43;;;;;;;;;;;;;;;-140.72;100.00;52857.59;5030235;28;19967;-69
2023/04/19 01:43:13;;;;;;;;;;;;;;;-140.72;100.00;52853.53;5027588;28;20367;-69
2023/04/19 01:45:38;;;;;;;;;;;;;;;-140.72;100.00;52877.88;5030772;28;20058;-69
2023/04/19 01:48:03;;;;;;;;;;;;;;;-140.72;100.00;52871.78;5035310;28;19966;-70
2023/04/19 01:50:29;;;;;;;;;;;;;;;-140.72;100.00;52857.59;5027933;28;19921;-69
2023/04/19 01:52:54;;;;;;;;;;;;;;;-140.72;100.00;52879.91;5029954;28;19921;-69
2023/04/19 01:55:20;;;;;;;;;;;;;;;-140.72;100.00;52898.16;5030761;28;20344;-70
2023/04/19 01:57:45;;;;;;;;;;;;;;;-140.72;100.00;52859.63;5034740;28;20299;-69
2023/04/19 02:00:10;;;;;;;;;;;;;;;-140.72;100.00;52875.84;5032127;28;19917;-70
2023/04/19 02:02:46;;;;;;;;;;;;;;;-140.72;100.00;52861.66;5023661;28;19962;-70
2023/04/19 02:05:11;;;;;;;;;;;;;;;-140.72;100.00;52855.56;5036118;28;20427;-69
2023/04/19 02:07:37;;;;;;;;;;;;;;;-140.72;100.00;52896.16;5030817;28;20023;-70
2023/04/19 02:13:04;;;;;;;;;;;;;;;-140.72;100.00;52881.94;5022762;28;19920;-69
2023/04/19 02:15:30;;;;;;;;;;;;;;;-140.72;100.00;52881.94;5033005;28;19921;-68
2023/04/19 02:18:07;;;;;;;;;;;;;;;-140.72;100.00;52869.75;5025178;28;19952;-69
2023/04/19 02:20:33;;;;;;;;;;;;;;;-140.72;100.00;52920.50;5026410;28;20321;-69
2023/04/19 02:22:59;;;;;;;;;;;;;;;-140.72;100.00;52898.16;5036846;28;20044;-69
2023/04/19 02:25:24;;;;;;;;;;;;;;;-140.72;100.00;52881.94;5024316;28;20007;-69
2023/04/19 02:27:50;;;;;;;;;;;;;;;-140.72;100.00;52871.78;5027404;28;20335;-69
2023/04/19 02:30:15;;;;;;;;;;;;;;;-140.72;100.00;52894.13;5029022;28;19921;-70
2023/04/19 02:32:40;;;;;;;;;;;;;;;-140.72;100.00;52896.16;5032276;28;20118;-70
2023/04/19 02:35:05;;;;;;;;;;;;;;;-140.72;100.00;52881.94;5023594;28;19986;-71
2023/04/19 02:37:31;;;;;;;;;;;;;;;-140.72;100.00;52855.56;5017600;28;20290;-70
2023/04/19 02:40:02;;;;;;;;;;;;;;;-140.72;100.00;52892.09;5021592;28;20489;-70
2023/04/19 02:42:27;;;;;;;;;;;;;;;-140.72;100.00;52886.00;5044206;28;19925;-70
2023/04/19 02:44:53;;;;;;;;;;;;;;;-140.72;100.00;52867.72;5030966;28;19985;-70
2023/04/19 02:47:18;;;;;;;;;;;;;;;-140.72;100.00;52849.47;5032235;28;19917;-70
2023/04/19 02:49:43;;;;;;;;;;;;;;;-140.72;100.00;52857.59;5026035;28;20017;-70
2023/04/19 02:52:08;;;;;;;;;;;;;;;-140.72;100.00;52849.47;5021959;28;19923;-70
2023/04/19 02:54:34;;;;;;;;;;;;;;;-140.72;100.00;52873.81;5031761;28;19924;-70
2023/04/19 02:56:59;;;;;;;;;;;;;;;-140.72;100.00;52871.78;5025530;28;19917;-70
2023/04/19 02:59:25;;;;;;;;;;;;;;;-140.72;100.00;52879.91;5025094;28;19917;-70
2023/04/19 03:01:50;;;;;;;;;;;;;;;-140.72;100.00;52904.25;5026728;28;19970;-70
2023/04/19 03:04:16;;;;;;;;;;;;;;;-140.72;100.00;52829.19;5025185;28;19921;-69
2023/04/19 03:06:43;;;;;;;;;;;;;;;-140.72;100.00;52873.81;5031415;28;19932;-70
2023/04/19 03:09:08;;;;;;;;;;;;;;;-140.72;100.00;52857.59;5031982;28;19962;-70
2023/04/19 03:11:34;;;;;;;;;;;;;;;-140.72;100.00;52855.56;5031558;28;19929;-70
2023/04/19 03:13:59;;;;;;;;;;;;;;;-140.72;100.00;52873.81;5027294;28;20345;-70
2023/04/19 03:16:25;;;;;;;;;;;;;;;-140.72;100.00;52869.75;5031316;28;20016;-70
2023/04/19 03:18:50;;;;;;;;;;;;;;;-140.72;100.00;52898.16;5031176;28;19917;-70
2023/04/19 03:21:15;;;;;;;;;;;;;;;-140.72;100.00;52865.69;5030089;28;19924;-69
2023/04/19 03:23:41;;;;;;;;;;;;;;;-140.72;100.00;52896.16;5044328;28;19921;-70
2023/04/19 03:26:06;;;;;;;;;;;;;;;-140.72;100.00;52877.88;5036577;28;19917;-71
2023/04/19 03:28:31;;;;;;;;;;;;;;;-140.72;100.00;52890.06;5021512;28;19921;-70
2023/04/19 03:30:56;;;;;;;;;;;;;;;-140.72;100.00;52898.16;5025531;28;19921;-70
2023/04/19 03:33:21;;;;;;;;;;;;;;;-140.72;100.00;52861.66;5025127;28;19917;-69
2023/04/19 03:35:47;;;;;;;;;;;;;;;-140.72;100.00;52859.63;5025437;28;19917;-71
2023/04/19 03:38:12;;;;;;;;;;;;;;;-140.72;100.00;52883.97;5031223;28;20069;-70
2023/04/19 03:40:37;;;;;;;;;;;;;;;-140.72;100.00;52845.41;5036818;28;20371;-69
2023/04/19 03:43:02;;;;;;;;;;;;;;;-140.72;100.00;52855.56;5015650;28;19923;-69
2023/04/19 03:45:28;;;;;;;;;;;;;;;-140.72;100.00;52886.00;5033160;28;20007;-69
2023/04/19 03:47:53;;;;;;;;;;;;;;;-140.72;100.00;52817.00;5016869;28;20391;-69
2023/04/19 03:50:19;;;;;;;;;;;;;;;-140.72;100.00;52837.28;5030696;28;19914;-70
2023/04/19 03:52:44;;;;;;;;;;;;;;;-140.72;100.00;52845.41;5023653;28;20036;-70
2023/04/19 03:55:10;;;;;;;;;;;;;;;-140.72;100.00;52831.19;5019303;28;19914;-70
2023/04/19 03:57:35;;;;;;;;;;;;;;;-140.72;100.00;52877.88;5029291;28;19917;-71
2023/04/19 04:00:00;;;;;;;;;;;;;;;-140.72;100.00;52857.59;5030159;28;19924;-69
2023/04/19 04:02:25;;;;;;;;;;;;;;;-140.72;100.00;52847.44;5031603;28;20295;-69
2023/04/19 04:04:54;;;;;;;;;;;;;;;-140.72;100.00;52867.72;5039518;28;19925;-69
2023/04/19 04:07:20;;;;;;;;;;;;;;;-140.72;100.00;52853.53;5030700;28;19917;-69
2023/04/19 04:09:46;;;;;;;;;;;;;;;-140.72;100.00;52853.53;5037936;28;20003;-71
2023/04/19 04:12:12;;;;;;;;;;;;;;;-140.72;100.00;52898.16;5031273;28;19925;-70
2023/04/19 04:14:37;;;;;;;;;;;;;;;-140.72;100.00;52861.66;5026626;28;19977;-70
2023/04/19 04:17:02;;;;;;;;;;;;;;;-140.72;100.00;52869.75;5021920;28;19925;-70
2023/04/19 04:19:27;;;;;;;;;;;;;;;-140.72;100.00;52857.59;5028033;28;19917;-70
2023/04/19 04:21:53;;;;;;;;;;;;;;;-140.72;100.00;52843.38;5029159;28;19917;-70
2023/04/19 04:24:19;;;;;;;;;;;;;;;-140.72;100.00;52877.88;5042330;28;19916;-70
2023/04/19 04:26:44;;;;;;;;;;;;;;;-140.72;100.00;52833.22;5030744;28;19917;-70
2023/04/19 04:29:09;;;;;;;;;;;;;;;-140.72;100.00;52825.13;5025216;28;19956;-70
2023/04/19 04:31:35;;;;;;;;;;;;;;;-140.72;100.00;52837.28;5028743;28;19925;-73
2023/04/19 04:34:01;;;;;;;;;;;;;;;-140.72;100.00;52849.47;5023324;28;19929;-73
2023/04/19 04:36:28;;;;;;;;;;;;;;;-140.72;100.00;52881.94;5023775;28;19924;-75
2023/04/19 04:38:53;;;;;;;;;;;;;;;-140.72;100.00;52843.38;5029315;28;20364;-74
2023/04/19 04:41:19;;;;;;;;;;;;;;;-140.72;100.00;52888.03;5017903;28;19921;-74
2023/04/19 04:43:48;;;;;;;;;;;;;;;-140.72;100.00;52819.03;5030405;28;20403;-72
2023/04/19 04:46:13;;;;;;;;;;;;;;;-140.72;100.00;52871.78;5030292;28;19944;-72
2023/04/19 04:48:38;;;;;;;;;;;;;;;-140.72;100.00;52863.66;5029111;28;20375;-74
2023/04/19 04:51:04;;;;;;;;;;;;;;;-140.72;100.00;52892.09;5029058;28;19924;-72
2023/04/19 04:53:29;;;;;;;;;;;;;;;-140.72;100.00;52877.88;5030594;28;19991;-75
2023/04/19 04:55:54;;;;;;;;;;;;;;;-140.72;100.00;52853.53;5030085;28;19928;-73
2023/04/19 05:01:22;;;;;;;;;;;;;;;-140.72;100.00;52863.66;5024608;28;19924;-74
2023/04/19 05:03:48;;;;;;;;;;;;;;;-140.72;100.00;52886.00;5038684;28;19918;-73
2023/04/19 05:06:13;;;;;;;;;;;;;;;-140.72;100.00;52823.09;5018591;28;19921;-73
2023/04/19 05:08:38;;;;;;;;;;;;;;;-140.72;100.00;52833.22;5041927;28;19917;-73
2023/04/19 05:11:04;;;;;;;;;;;;;;;-140.72;100.00;52845.41;5025874;28;19940;-73
2023/04/19 05:13:29;;;;;;;;;;;;;;;-140.72;100.00;52845.41;5025257;28;20318;-74
2023/04/19 05:15:54;;;;;;;;;;;;;;;-140.72;100.00;52829.19;5053104;28;19919;-72
2023/04/19 05:18:20;;;;;;;;;;;;;;;-140.72;100.00;52869.75;5025396;28;19928;-73
2023/04/19 05:20:45;;;;;;;;;;;;;;;-140.72;100.00;52892.09;5032749;28;19923;-73
2023/04/19 05:23:11;;;;;;;;;;;;;;;-140.72;100.00;52859.63;5027378;28;19921;-72
2023/04/19 05:25:36;;;;;;;;;;;;;;;-140.72;100.00;52847.44;5031038;28;19917;-73
2023/04/19 05:28:02;;;;;;;;;;;;;;;-140.72;100.00;52867.72;5012741;28;20290;-72
2023/04/19 05:30:27;;;;;;;;;;;;;;;-140.72;100.00;52877.88;5020014;28;19960;-72
2023/04/19 05:32:52;;;;;;;;;;;;;;;-140.72;100.00;52873.81;5030215;28;19918;-72
2023/04/19 05:35:18;;;;;;;;;;;;;;;-140.72;100.00;52843.38;5032029;28;19966;-73
2023/04/19 05:37:44;;;;;;;;;;;;;;;-140.72;100.00;52861.66;5033996;28;20065;-73
2023/04/19 05:40:09;;;;;;;;;;;;;;;-140.72;100.00;52859.63;5028688;28;19924;-73
2023/04/19 05:42:34;;;;;;;;;;;;;;;-140.72;100.00;52859.63;5033415;28;19962;-73
2023/04/19 05:45:00;;;;;;;;;;;;;;;-140.72;100.00;52879.91;5044285;28;19921;-74
2023/04/19 05:47:25;;;;;;;;;;;;;;;-140.72;100.00;52829.19;5038343;28;19970;-73
2023/04/19 05:49:50;;;;;;;;;;;;;;;-140.72;100.00;52861.66;5022182;28;20299;-74
2023/04/19 05:52:15;;;;;;;;;;;;;;;-140.72;100.00;52825.13;5024002;28;19921;-73
2023/04/19 05:54:40;;;;;;;;;;;;;;;-140.72;100.00;52902.22;5029273;28;19921;-74
2023/04/19 05:57:06;;;;;;;;;;;;;;;-140.72;100.00;52883.97;5035144;27;20261;-70
2023/04/19 05:59:31;;;;;;;;;;;;;;;-140.72;100.00;52812.94;5025309;28;19922;-73
2023/04/19 06:01:56;;;;;;;;;;;;;;;-140.72;100.00;52877.88;5027230;28;19917;-71
2023/04/19 06:04:21;;;;;;;;;;;;;;;-140.72;100.00;52875.84;5015223;28;19922;-71
2023/04/19 06:06:47;;;;;;;;;;;;;;;-140.72;100.00;52863.66;5026008;28;19917;-70
2023/04/19 06:09:13;;;;;;;;;;;;;;;-140.72;100.00;52873.81;5016801;28;19917;-71
2023/04/19 06:11:39;;;;;;;;;;;;;;;-140.72;100.00;52898.16;5023547;28;20399;-71
2023/04/19 06:14:04;;;;;;;;;;;;;;;-140.72;100.00;52861.66;5031308;28;19917;-74
2023/04/19 06:16:30;;;;;;;;;;;;;;;-140.72;100.00;52857.59;5021270;28;19974;-70
2023/04/19 06:18:56;;;;;;;;;;;;;;;-140.72;100.00;52890.06;5030032;28;19921;-70
2023/04/19 06:21:21;;;;;;;;;;;;;;;-140.72;100.00;52853.53;5030394;28;19927;-70
2023/04/19 06:23:46;;;;;;;;;;;;;;;-140.72;100.00;52896.16;5030580;28;20364;-71
2023/04/19 06:26:11;;;;;;;;;;;;;;;-140.72;100.00;52853.53;5026790;28;20002;-71
2023/04/19 06:28:36;;;;;;;;;;;;;;;-140.72;100.00;52859.63;5020381;28;20032;-70
2023/04/19 06:31:02;;;;;;;;;;;;;;;-140.72;100.00;52865.69;5025213;28;19925;-70
2023/04/19 06:33:27;;;;;;;;;;;;;;;-140.72;100.00;52853.53;5029947;28;19966;-70
2023/04/19 06:36:11;;;;;;;;;;;;;;;-140.72;100.00;52821.06;5031776;28;20294;-70
2023/04/19 06:38:40;;;;;;;;;;;;;;;-140.72;100.00;52829.19;5032024;28;20329;-77
2023/04/19 06:41:06;;;;;;;;;;;;;;;-140.72;100.00;52845.41;5026986;28;19919;-74
2023/04/19 06:46:34;;;;;;;;;;;;;;;-140.72;91.31;52835.25;5023880;28;19920;-73
2023/04/19 06:48:59;;;;;;;;;;;;;;;-140.72;70.77;52867.72;5014129;28;19917;-74
2023/04/19 06:51:24;;;;;;;;;;;;;;;-140.72;66.11;52821.06;5019957;28;19920;-74
2023/04/19 06:53:50;;;;;;;;;;;;;;;-140.72;52.80;52845.41;5031777;28;19924;-71
2023/04/19 06:56:15;;;;;;;;;;;;;;;-140.72;46.10;52849.47;5032819;28;20272;-71
2023/04/19 06:58:40;;;;;;;;;;;;;;;-140.72;30.26;52855.56;5026928;28;19917;-71
2023/04/19 07:01:38;;;;;;;;;;;;;;;-140.72;28.01;52877.88;5030161;27;19924;-71
2023/04/19 07:04:03;;;;;;;;;;;;;;;-140.72;28.06;52829.19;5031328;28;20395;-71
2023/04/19 07:06:35;;;;;;;;;;;;;;;-140.72;19.95;52845.41;5027370;28;19921;-71
2023/04/19 07:09:00;;;;;;;;;;;;;;;-140.72;15.03;52857.59;5029768;28;19928;-71
2023/04/19 07:11:33;;;;;;;;;;;;;;;-140.72;13.67;52879.91;5031720;28;19917;-71
2023/04/19 07:14:01;;;;;;;;;;;;;;;-140.72;6.73;52837.28;5020116;28;19939;-71
2023/04/19 07:16:26;;;;;;;;;;;;;;;-140.72;3.67;52833.22;5031381;28;19923;-71
2023/04/19 07:18:52;;;;;;;;;;;;;;;-140.72;0.00;52788.59;5023704;28;19917;-71
2023/04/19 07:21:17;;;;;;;;;;;;;;;-140.72;0.00;52871.78;5014399;28;20364;-71
2023/04/19 07:23:42;;;;;;;;;;;;;;;-140.72;0.00;52829.19;5039473;28;20343;-71
2023/04/19 07:26:07;;;;;;;;;;;;;;;-140.72;0.00;52845.41;5031130;28;19918;-71
2023/04/19 07:28:33;;;;;;;;;;;;;;;-140.72;0.00;52849.47;5037063;28;19963;-71
2023/04/19 07:30:59;;;;;;;;;;;;;;;-140.72;0.00;52802.78;5030223;28;20004;-71
2023/04/19 07:33:25;;;;;;;;;;;;;;;-140.72;0.00;52823.09;5029084;28;19918;-71
2023/04/19 07:35:50;;;;;;;;;;;;;;;-140.72;0.00;52817.00;5030147;27;19927;-71
2023/04/19 07:38:16;;;;;;;;;;;;;;;-140.72;0.00;52861.66;5031402;28;19921;-71
2023/04/19 07:40:41;;;;;;;;;;;;;;;-140.72;0.00;52851.50;5021535;28;19952;-71
2023/04/19 07:43:06;;;;;;;;;;;;;;;-140.72;0.00;52831.19;5050163;27;19928;-72
2023/04/19 07:45:31;;;;;;;;;;;;;;;-140.72;0.00;52806.84;5043567;27;19924;-71
2023/04/19 07:47:57;;;;;;;;;;;;;;;-140.72;0.00;52812.94;5057941;27;19929;-72
2023/04/19 07:50:23;;;;;;;;;;;;;;;-140.72;0.00;52823.09;5030795;28;19920;-71
2023/04/19 07:52:49;;;;;;;;;;;;;;;-140.72;0.00;52798.72;5029020;28;19944;-71
2023/04/19 07:55:14;;;;;;;;;;;;;;;-140.72;0.00;52837.28;5029086;28;20371;-71
2023/04/19 07:57:39;;;;;;;;;;;;;;;-140.72;0.00;52794.69;5018130;28;19924;-69
2023/04/19 08:00:05;;;;;;;;;;;;;;;-140.72;0.00;52806.84;5031037;28;19917;-70
2023/04/19 08:02:30;;;;;;;;;;;;;;;-140.72;0.00;52812.94;5030861;28;19917;-70
2023/04/19 08:05:05;;;;;;;;;;;;;;;-140.72;0.00;52772.34;5012996;28;19929;-72
2023/04/19 08:07:30;;;;;;;;;;;;;;;-140.72;0.00;52804.81;5023027;28;20397;-71
2023/04/19 08:10:04;;;;;;;;;;;;;;;-140.72;0.00;52784.53;5030954;28;19921;-73
2023/04/19 08:12:49;;;;;;;;;;;;;;;-140.72;0.00;52772.34;5023044;28;19986;-72
2023/04/19 08:15:14;;;;;;;;;;;;;;;-140.72;0.00;52786.56;5031037;28;19921;-70
2023/04/19 08:17:41;;;;;;;;;;;;;;;-140.72;0.00;52782.50;5033483;28;20332;-69
2023/04/19 08:20:07;;;;;;;;;;;;;;;-140.72;0.00;52741.91;5026357;28;19961;-69
2023/04/19 08:22:45;;;;;;;;;;;;;;;-140.72;0.00;52794.69;5027341;28;20409;-73
2023/04/19 08:25:10;;;;;;;;;;;;;;;-140.72;0.00;52774.38;5027828;28;20000;-71
2023/04/19 08:27:36;;;;;;;;;;;;;;;-140.72;0.00;52750.03;5033705;28;19955;-71
2023/04/19 08:30:15;;;;;;;;;;;;;;;-140.72;0.00;52713.50;5023944;28;19921;-71
2023/04/19 08:32:40;;;;;;;;;;;;;;;-140.72;0.00;52764.25;5022592;28;19943;-71
2023/04/19 08:35:07;;;;;;;;;;;;;;;-140.72;0.00;52723.66;5041252;28;19917;-70
2023/04/19 08:37:32;;;;;;;;;;;;;;;-140.72;0.00;52729.75;5018859;28;19917;-70
2023/04/19 08:39:57;;;;;;;;;;;;;;;-140.72;0.00;52713.50;5030291;28;20017;-71
2023/04/19 08:42:22;;;;;;;;;;;;;;;-140.72;0.00;52670.88;5018104;28;19957;-71
2023/04/19 08:44:48;;;;;;;;;;;;;;;-140.72;0.00;52670.88;5016857;28;20451;-71
2023/04/19 08:47:26;;;;;;;;;;;;;;;-140.72;0.00;52654.66;5041474;28;20414;-71
2023/04/19 08:49:54;;;;;;;;;;;;;;;-140.72;0.00;52654.66;5018402;28;20393;-70
2023/04/19 08:52:19;;;;;;;;;;;;;;;-140.72;0.00;52646.53;5029680;28;20363;-70
2023/04/19 08:54:45;;;;;;;;;;;;;;;-140.72;0.00;52656.69;5030093;28;19918;-70
2023/04/19 08:57:11;;;;;;;;;;;;;;;-140.72;0.00;52634.38;5028765;28;20299;-71
2023/04/19 08:59:38;;;;;;;;;;;;;;;-140.72;0.00;52569.44;5028797;28;20367;-70
2023/04/19 09:05:06;;;;;;;;;;;;;;;-140.72;0.00;52520.72;5032392;28;19948;-71
2023/04/19 09:07:31;;;;;;;;;;;;;;;-140.72;0.00;52585.66;5031675;28;19961;-71
2023/04/19 09:10:04;;;;;;;;;;;;;;;-140.72;0.00;52486.22;5032291;28;20016;-78
2023/04/19 09:12:29;;;;;;;;;;;;;;;-140.72;0.00;52512.59;5029542;28;19917;-70
2023/04/19 09:14:55;;;;;;;;;;;;;;;-140.72;0.00;52502.47;5028296;28;19924;-71
2023/04/19 09:17:20;;;;;;;;;;;;;;;-140.72;0.00;52459.84;5031701;28;19960;-69
2023/04/19 09:19:46;;;;;;;;;;;;;;;-140.72;0.00;52472.03;5027211;28;19917;-70
2023/04/19 09:22:13;;;;;;;;;;;;;;;-140.72;0.00;52425.34;5027407;28;20383;-73
2023/04/19 09:24:38;;;;;;;;;;;;;;;-140.72;0.00;52463.91;5027998;28;19921;-72
2023/04/19 09:27:03;;;;;;;;;;;;;;;-140.72;0.00;52435.50;5030927;28;20298;-72
2023/04/19 09:29:29;;;;;;;;;;;;;;;-140.72;0.00;52447.69;5024432;28;19924;-73
2023/04/19 09:31:56;;;;;;;;;;;;;;;-140.72;0.00;52443.63;5025172;28;19921;-72
2023/04/19 09:34:22;;;;;;;;;;;;;;;-140.72;0.00;52380.72;5037459;28;19926;-72
2023/04/19 09:36:48;;;;;;;;;;;;;;;-140.72;0.00;52374.63;5031265;28;20394;-72
2023/04/19 09:39:14;;;;;;;;;;;;;;;-140.72;0.00;52366.50;5031382;28;19918;-72
2023/04/19 09:41:49;;;;;;;;;;;;;;;-140.72;0.00;52394.91;5035656;28;20302;-72
2023/04/19 09:44:15;;;;;;;;;;;;;;;-140.72;0.00;52323.91;5017242;28;19925;-71
2023/04/19 09:46:41;;;;;;;;;;;;;;;-140.72;0.00;52327.97;5026069;28;19917;-71
2023/04/19 09:49:16;;;;;;;;;;;;;;;-140.72;0.00;52295.50;5025257;28;20279;-72
2023/04/19 09:51:48;;;;;;;;;;;;;;;-140.72;0.00;52317.81;5022560;28;20016;-72
2023/04/19 09:54:14;;;;;;;;;;;;;;;-140.72;0.00;52325.94;5027926;28;19974;-72
2023/04/19 09:56:40;;;;;;;;;;;;;;;-140.72;0.00;52323.91;5018832;28;20333;-72
2023/04/19 09:59:06;;;;;;;;;;;;;;;-140.72;0.00;52311.72;5020696;28;19977;-73
2023/04/19 10:01:35;;;;;;;;;;;;;;;-140.72;0.00;52313.75;5018864;28;19929;-75
2023/04/19 10:04:02;;;;;;;;;;;;;;;-140.72;0.00;52338.09;5024113;28;19956;-75
2023/04/19 10:06:27;;;;;;;;;;;;;;;-140.72;0.00;52334.03;5021536;28;20016;-73
2023/04/19 10:08:54;;;;;;;;;;;;;;;-140.72;0.00;52303.59;5026564;28;20366;-72
2023/04/19 10:11:25;;;;;;;;;;;;;;;-140.72;0.00;52285.34;5026828;28;19922;-72
2023/04/19 10:14:20;;;;;;;;;;;;;;;-140.72;0.00;52261.00;5029558;28;19924;-70
2023/04/19 10:16:45;;;;;;;;;;;;;;;-140.72;0.00;52305.63;5029924;28;19924;-72
2023/04/19 10:19:12;;;;;;;;;;;;;;;-140.72;0.00;52248.81;5031097;28;20016;-71
2023/04/19 10:21:38;;;;;;;;;;;;;;;-140.72;0.00;52208.25;5020117;28;19928;-71
2023/04/19 10:24:04;;;;;;;;;;;;;;;-140.72;0.00;52198.09;5018075;28;19917;-71
2023/04/19 10:26:29;;;;;;;;;;;;;;;-140.72;0.00;52246.78;5021647;28;19924;-71
2023/04/19 10:28:56;;;;;;;;;;;;;;;-140.72;0.00;52175.78;5027244;28;20009;-71
2023/04/19 10:31:23;;;;;;;;;;;;;;;-140.72;0.00;52196.06;5037060;28;19973;-71
2023/04/19 10:33:50;;;;;;;;;;;;;;;-140.72;0.00;52192.00;5026950;28;19939;-71
2023/04/19 10:36:16;;;;;;;;;;;;;;;-140.72;0.00;52222.44;5019673;28;19917;-71
2023/04/19 10:38:46;;;;;;;;;;;;;;;-140.72;0.00;52153.47;5027346;28;19921;-71
2023/04/19 10:41:41;;;;;;;;;;;;;;;-140.72;0.00;52202.16;5027295;28;19925;-72
2023/04/19 10:44:13;;;;;;;;;;;;;;;-140.72;0.00;52163.59;5031967;28;19917;-74
2023/04/19 10:46:39;;;;;;;;;;;;;;;-140.72;0.00;52118.97;5022198;28;19921;-71
2023/04/19 10:49:05;;;;;;;;;;;;;;;-140.72;0.00;52159.56;5031656;28;19925;-70
2023/04/19 10:51:51;;;;;;;;;;;;;;;-140.72;0.00;52153.47;5028232;28;20393;-71
2023/04/19 10:54:26;;;;;;;;;;;;;;;-140.72;0.00;52137.22;5021678;28;19921;-71
2023/04/19 10:56:54;;;;;;;;;;;;;;;-140.72;0.00;52133.16;5034765;28;19933;-71
2023/04/19 10:59:26;;;;;;;;;;;;;;;-140.72;0.00;52068.25;5041534;28;20008;-71
2023/04/19 11:01:51;;;;;;;;;;;;;;;-140.72;0.00;52054.03;5030504;28;19936;-71
2023/04/19 11:04:28;;;;;;;;;;;;;;;-140.72;0.00;52112.88;5025716;28;19921;-71
2023/04/19 11:07:00;;;;;;;;;;;;;;;-140.72;0.00;52131.16;5030426;28;19921;-70
2023/04/19 11:12:28;;;;;;;;;;;;;;;-140.72;0.00;52084.47;5025559;28;19928;-71
2023/04/19 11:15:12;;;;;;;;;;;;;;;-140.72;0.00;52068.25;5035054;28;20365;-70
2023/04/19 11:17:38;;;;;;;;;;;;;;;-140.72;0.00;52043.91;5026075;28;19929;-70
2023/04/19 11:20:07;;;;;;;;;;;;;;;-140.72;0.00;52062.16;5030514;28;20303;-70
2023/04/19 11:22:32;;;;;;;;;;;;;;;-140.72;0.00;52054.03;5024048;28;20000;-70
2023/04/19 11:25:18;;;;;;;;;;;;;;;-140.72;0.00;52056.06;5026574;28;20009;-71
2023/04/19 11:27:44;;;;;;;;;;;;;;;-140.72;0.00;52035.78;5028774;28;20134;-70
2023/04/19 11:30:11;;;;;;;;;;;;;;;-140.72;0.00;52049.97;5024331;28;19921;-74
2023/04/19 11:32:36;;;;;;;;;;;;;;;-140.72;0.00;52035.78;5027725;28;19924;-73
2023/04/19 11:35:06;;;;;;;;;;;;;;;-140.72;0.00;52031.72;5029807;28;19917;-70
2023/04/19 11:37:46;;;;;;;;;;;;;;;-140.72;0.00;52009.41;5023126;28;19944;-70
2023/04/19 11:40:15;;;;;;;;;;;;;;;-140.72;0.00;52070.28;5021420;28;19921;-69
2023/04/19 11:45:44;;;;;;;;;;;;;;;-140.72;0.00;51976.94;5022891;28;20062;-70
2023/04/19 11:48:13;;;;;;;;;;;;;;;-140.72;0.00;51948.53;5030889;28;19985;-73
2023/04/19 11:50:40;;;;;;;;;;;;;;;-140.72;0.00;51960.72;5026355;28;20364;-73
2023/04/19 11:53:09;;;;;;;;;;;;;;;-140.72;0.00;51952.59;5023217;28;20401;-72
2023/04/19 11:55:34;;;;;;;;;;;;;;;-140.72;0.00;51942.44;5027899;28;19917;-72
2023/04/19 12:01:09;;;;;;;;;;;;;;;-140.72;0.00;51981.00;5025458;28;20133;-73
2023/04/19 12:04:01;;;;;;;;;;;;;;;-140.72;0.00;51934.34;5036196;28;20469;-72
2023/04/19 12:06:28;;;;;;;;;;;;;;;-140.72;0.00;51930.28;5022513;28;19928;-76
2023/04/19 12:11:57;;;;;;;;;;;;;;;-140.72;0.00;51940.41;5018382;28;19979;-72
2023/04/19 12:14:22;;;;;;;;;;;;;;;-140.72;0.00;51916.06;5025372;28;19918;-74
2023/04/19 12:17:03;;;;;;;;;;;;;;;-140.72;0.00;51914.03;5022095;28;19925;-71
2023/04/19 12:19:33;;;;;;;;;;;;;;;-140.72;0.00;51861.28;5027863;28;19918;-73
2023/04/19 12:22:06;;;;;;;;;;;;;;;-140.72;0.00;51834.91;5022187;28;20401;-73
2023/04/19 12:24:31;;;;;;;;;;;;;;;-140.72;0.00;51847.09;5017381;28;19925;-71
2023/04/19 12:27:01;;;;;;;;;;;;;;;-140.72;0.00;51934.34;5024978;28;20387;-71
2023/04/19 12:29:26;;;;;;;;;;;;;;;-140.72;0.00;51932.31;5037240;28;20403;-70
2023/04/19 12:34:54;;;;;;;;;;;;;;;-140.72;0.00;51920.13;5022616;28;20004;-71
2023/04/19 12:37:19;;;;;;;;;;;;;;;-140.72;0.00;51879.56;5019519;28;20008;-71
2023/04/19 12:39:45;;;;;;;;;;;;;;;-140.72;0.00;51863.31;5031047;28;19920;-72
2023/04/19 12:42:10;;;;;;;;;;;;;;;-140.72;0.00;51871.44;5030613;28;19917;-71
2023/04/19 12:44:35;;;;;;;;;;;;;;;-140.72;0.00;51881.59;5032836;27;20653;-71
2023/04/19 12:47:00;;;;;;;;;;;;;;;-140.72;0.00;51877.53;5021583;28;19928;-71
2023/04/19 12:49:26;;;;;;;;;;;;;;;-140.72;0.00;51891.72;5022949;28;19921;-71
2023/04/19 12:51:51;;;;;;;;;;;;;;;-140.72;0.00;51895.78;5028999;28;19921;-71